Time;durP1;ratioP1;P1;durP2;ratioP2;P2;SDS_P1;SDS_P2;PMS_P1;PMS_P2;Temp;Humidity;BMP_temperature;BMP_pressure;BME280_temperature;BME280_humidity;BME280_pressure;Samples;Min_cycle;Max_cycle;Signal;HPM_P1;HPM_P2
2022/04/18 00:00:36;;;;;;;44.85;22.08;;;9.10;94.30;;;;;;5072778;28;20048;-70
2022/04/18 00:03:04;;;;;;;42.53;23.10;;;;;;;;;;5073052;28;20040;-70
2022/04/18 00:05:31;;;;;;;47.05;23.30;;;9.30;90.30;;;;;;5072715;28;20123;-70
2022/04/18 00:07:57;;;;;;;48.38;22.77;;;;;;;;;;5072500;28;20036;-69
2022/04/18 00:10:23;;;;;;;47.28;22.60;;;;;;;;;;5055747;28;20045;-70
2022/04/18 00:12:49;;;;;;;42.72;22.80;;;;;;;;;;5073689;28;20033;-70
2022/04/18 00:15:16;;;;;;;45.53;23.10;;;;;;;;;;5072303;28;20060;-70
2022/04/18 00:17:43;;;;;;;45.40;23.27;;;9.80;95.00;;;;;;5072409;28;20063;-70
2022/04/18 00:20:10;;;;;;;44.55;22.85;;;8.90;90.90;;;;;;5072353;28;20097;-70
2022/04/18 00:22:36;;;;;;;48.33;22.02;;;;;;;;;;5072276;28;20060;-70
2022/04/18 00:25:02;;;;;;;40.42;22.15;;;;;;;;;;5072239;28;20510;-70
2022/04/18 00:27:28;;;;;;;45.13;23.23;;;;;;;;;;5072301;28;20119;-69
2022/04/18 00:29:54;;;;;;;45.17;22.35;;;;;;;;;;5072489;28;20032;-69
2022/04/18 00:32:20;;;;;;;37.45;21.73;;;;;;;;;;5072167;28;20044;-69
2022/04/18 00:34:46;;;;;;;40.42;22.92;;;;;;;;;;5071485;28;20036;-70
2022/04/18 00:37:12;;;;;;;38.85;21.83;;;;;;;;;;5071977;28;20119;-69
2022/04/18 00:39:38;;;;;;;42.33;21.73;;;;;;;;;;5072097;28;20032;-69
2022/04/18 00:42:05;;;;;;;42.17;22.48;;;;;;;;;;5071963;28;20094;-69
2022/04/18 00:44:31;;;;;;;41.90;22.77;;;;;;;;;;5071884;28;20480;-69
2022/04/18 00:46:57;;;;;;;42.42;23.10;;;;;;;;;;5071881;28;20040;-70
2022/04/18 00:49:22;;;;;;;48.92;22.90;;;7.70;95.40;;;;;;5071872;28;20048;-70
2022/04/18 00:51:49;;;;;;;40.13;22.92;;;;;;;;;;5073216;28;20033;-70
2022/04/18 00:54:15;;;;;;;41.72;23.45;;;;;;;;;;5073338;28;20032;-70
2022/04/18 00:56:41;;;;;;;41.42;22.88;;;;;;;;;;5072034;28;20043;-70
2022/04/18 00:59:08;;;;;;;44.47;22.77;;;;;;;;;;5072158;28;20436;-70
2022/04/18 01:01:34;;;;;;;41.97;22.05;;;;;;;;;;5071913;28;20072;-70
2022/04/18 01:04:00;;;;;;;47.10;22.77;;;;;;;;;;5072988;28;20037;-70
2022/04/18 01:06:26;;;;;;;43.25;22.95;;;;;;;;;;5071719;28;20076;-70
2022/04/18 01:08:52;;;;;;;43.72;23.70;;;;;;;;;;5071858;28;20110;-70
2022/04/18 01:11:18;;;;;;;45.35;23.80;;;;;;;;;;5071891;28;20071;-70
2022/04/18 01:13:45;;;;;;;47.40;24.00;;;;;;;;;;5072021;28;20389;-70
2022/04/18 01:16:12;;;;;;;44.78;23.60;;;;;;;;;;5071561;28;20504;-70
2022/04/18 01:18:38;;;;;;;50.88;24.65;;;;;;;;;;5071976;28;20385;-70
2022/04/18 01:21:08;;;;;;;45.05;23.75;;;8.00;92.60;;;;;;5071962;28;20396;-70
2022/04/18 01:23:34;;;;;;;53.22;26.05;;;;;;;;;;5054966;28;20045;-70
2022/04/18 01:29:03;;;;;;;39.47;23.25;;;9.00;96.90;;;;;;5071566;28;20044;-70
2022/04/18 01:31:37;;;;;;;45.22;23.63;;;;;;;;;;5071748;28;20123;-70
2022/04/18 01:34:05;;;;;;;42.08;22.95;;;8.00;93.30;;;;;;5071635;28;20044;-70
2022/04/18 01:36:32;;;;;;;39.40;24.20;;;8.10;93.40;;;;;;5071610;28;20055;-70
2022/04/18 01:38:58;;;;;;;51.55;25.73;;;;;;;;;;5071559;28;20514;-70
2022/04/18 01:41:24;;;;;;;44.00;23.90;;;;;;;;;;5054883;28;20044;-70
2022/04/18 01:43:50;;;;;;;48.65;23.35;;;;;;;;;;5054599;28;20485;-70
2022/04/18 01:46:18;;;;;;;49.95;24.33;;;8.10;93.40;;;;;;5071516;28;20044;-70
2022/04/18 01:48:44;;;;;;;46.83;24.23;;;;;;;;;;5075150;28;20072;-71
2022/04/18 01:51:10;;;;;;;52.67;25.95;;;;;;;;;;5075105;28;20153;-71
2022/04/18 01:53:36;;;;;;;43.00;23.98;;;;;;;;;;5075076;28;20532;-70
2022/04/18 01:56:02;;;;;;;47.05;23.80;;;;;;;;;;5058427;28;20040;-71
2022/04/18 01:58:28;;;;;;;52.45;24.35;;;;;;;;;;5074942;28;20052;-70
2022/04/18 02:00:54;;;;;;;49.92;25.23;;;;;;;;;;5074901;28;20040;-70
2022/04/18 02:03:21;;;;;;;44.97;25.83;;;;;;;;;;5075101;28;20087;-71
2022/04/18 02:05:49;;;;;;;46.58;23.30;;;;;;;;;;5074819;28;20049;-71
2022/04/18 02:08:15;;;;;;;43.53;24.25;;;;;;;;;;5074962;28;20044;-71
2022/04/18 02:10:41;;;;;;;48.72;24.83;;;;;;;;;;5074918;28;20047;-71
2022/04/18 02:13:07;;;;;;;44.63;24.23;;;;;;;;;;5074847;28;20041;-71
2022/04/18 02:15:34;;;;;;;47.08;26.05;;;;;;;;;;5074534;28;20566;-71
2022/04/18 02:18:00;;;;;;;47.20;25.88;;;;;;;;;;5074562;28;20049;-71
2022/04/18 02:20:26;;;;;;;47.65;24.70;;;;;;;;;;5058041;28;20094;-71
2022/04/18 02:22:52;;;;;;;44.95;26.58;;;;;;;;;;5074653;28;20080;-71
2022/04/18 02:25:19;;;;;;;48.88;24.70;;;;;;;;;;5074598;28;20447;-71
2022/04/18 02:27:45;;;;;;;49.15;26.20;;;;;;;;;;5057854;28;20041;-71
2022/04/18 02:30:11;;;;;;;46.53;25.27;;;8.40;97.20;;;;;;5074552;28;20044;-71
2022/04/18 02:32:50;;;;;;;47.47;25.52;;;;;;;;;;5075972;28;20051;-71
2022/04/18 02:35:17;;;;;;;45.17;25.67;;;7.90;93.60;;;;;;5074654;28;20480;-71
2022/04/18 02:37:44;;;;;;;46.60;23.60;;;;;;;;;;5057914;28;20048;-71
2022/04/18 02:40:10;;;;;;;48.83;25.52;;;;;;;;;;5057674;28;20044;-71
2022/04/18 02:42:36;;;;;;;43.55;24.50;;;;;;;;;;5074267;28;20048;-70
2022/04/18 02:45:02;;;;;;;45.45;25.92;;;;;;;;;;5074014;28;20488;-70
2022/04/18 02:47:28;;;;;;;48.05;26.83;;;;;;;;;;5074185;28;20040;-70
2022/04/18 02:49:54;;;;;;;50.75;26.15;;;;;;;;;;5074168;28;20044;-70
2022/04/18 02:52:20;;;;;;;46.40;25.38;;;;;;;;;;5074145;28;20040;-70
2022/04/18 02:54:46;;;;;;;45.80;26.38;;;;;;;;;;5073975;28;20040;-70
2022/04/18 02:57:13;;;;;;;48.65;25.98;;;;;;;;;;5073602;28;20037;-70
2022/04/18 02:59:39;;;;;;;47.53;27.58;;;;;;;;;;5074369;28;20032;-70
2022/04/18 03:02:06;;;;;;;49.53;26.15;;;;;;;;;;5073847;28;20161;-70
2022/04/18 03:04:32;;;;;;;47.42;25.17;;;;;;;;;;5073798;28;20036;-71
2022/04/18 03:06:58;;;;;;;48.83;26.05;;;;;;;;;;5074083;28;20071;-71
2022/04/18 03:09:24;;;;;;;54.72;26.10;;;;;;;;;;5073719;28;20500;-70
2022/04/18 03:11:50;;;;;;;54.05;27.52;;;;;;;;;;5073563;28;20162;-70
2022/04/18 03:14:16;;;;;;;47.35;26.65;;;;;;;;;;5073628;28;20044;-70
2022/04/18 03:16:42;;;;;;;50.38;27.75;;;;;;;;;;5073436;28;20095;-70
2022/04/18 03:19:08;;;;;;;49.40;25.67;;;;;;;;;;5073447;28;20087;-70
2022/04/18 03:21:34;;;;;;;54.35;25.52;;;;;;;;;;5073374;28;20096;-70
2022/04/18 03:24:00;;;;;;;55.03;27.05;;;;;;;;;;5073345;28;20123;-70
2022/04/18 03:26:26;;;;;;;49.20;26.42;;;;;;;;;;5073471;28;20052;-71
2022/04/18 03:28:52;;;;;;;48.00;27.08;;;;;;;;;;5073351;28;20044;-71
2022/04/18 03:31:18;;;;;;;48.35;26.48;;;;;;;;;;5073358;28;20040;-71
2022/04/18 03:33:44;;;;;;;52.60;29.27;;;;;;;;;;5073421;28;20399;-71
2022/04/18 03:41:39;;;;;;;47.40;26.98;;;;;;;;;;5073025;28;20056;-70
2022/04/18 03:44:06;;;;;;;48.63;27.70;;;;;;;;;;5072960;28;20044;-70
2022/04/18 03:46:32;;;;;;;47.72;26.35;;;;;;;;;;5072933;28;20485;-70
2022/04/18 03:48:58;;;;;;;48.70;27.20;;;;;;;;;;5072931;28;20400;-70
2022/04/18 03:51:24;;;;;;;49.38;26.63;;;;;;;;;;5072767;28;20040;-70
2022/04/18 03:53:50;;;;;;;53.15;28.73;;;;;;;;;;5074058;28;20047;-70
2022/04/18 03:56:16;;;;;;;55.90;28.80;;;;;;;;;;5072720;28;20080;-70
2022/04/18 03:58:42;;;;;;;55.35;28.60;;;;;;;;;;5072971;28;20079;-70
2022/04/18 04:01:08;;;;;;;56.58;28.60;;;;;;;;;;5072528;28;20500;-70
2022/04/18 04:03:34;;;;;;;53.25;28.38;;;;;;;;;;5072630;28;20323;-70
2022/04/18 04:06:00;;;;;;;56.20;28.17;;;;;;;;;;5072613;28;20119;-70
2022/04/18 04:08:28;;;;;;;52.90;28.42;;;;;;;;;;5072548;28;20048;-70
2022/04/18 04:10:54;;;;;;;56.92;27.70;;;;;;;;;;5071863;28;20047;-70
2022/04/18 04:13:21;;;;;;;56.67;29.33;;;;;;;;;;5072382;28;20098;-70
2022/04/18 04:15:47;;;;;;;56.75;29.98;;;;;;;;;;5055494;28;20186;-70
2022/04/18 04:18:13;;;;;;;53.75;28.52;;;;;;;;;;5072544;28;20123;-70
2022/04/18 04:20:39;;;;;;;56.20;28.08;;;;;;;;;;5072257;28;20097;-70
2022/04/18 04:23:05;;;;;;;54.03;30.50;;;;;;;;;;5072276;28;20036;-70
2022/04/18 04:25:31;;;;;;;48.20;29.17;;;;;;;;;;5072174;28;20397;-70
2022/04/18 04:27:57;;;;;;;58.35;29.13;;;;;;;;;;5072099;28;20036;-70
2022/04/18 04:30:23;;;;;;;61.83;28.10;;;;;;;;;;5072310;28;20043;-70
2022/04/18 04:32:50;;;;;;;62.45;30.38;;;;;;;;;;5072149;28;20127;-70
2022/04/18 04:35:19;;;;;;;62.38;30.85;;;;;;;;;;5072468;28;20040;-70
2022/04/18 04:37:46;;;;;;;51.60;29.02;;;;;;;;;;5072209;28;20041;-70
2022/04/18 04:40:12;;;;;;;53.60;29.15;;;;;;;;;;5055485;28;20098;-70
2022/04/18 04:42:39;;;;;;;55.40;30.63;;;;;;;;;;5072393;28;20388;-70
2022/04/18 04:45:05;;;;;;;57.75;29.02;;;8.10;96.40;;;;;;5071853;28;20044;-70
2022/04/18 04:47:31;;;;;;;51.85;29.23;;;;;;;;;;5072024;28;20037;-70
2022/04/18 04:49:57;;;;;;;55.67;30.30;;;;;;;;;;5055385;28;20499;-70
2022/04/18 04:52:24;;;;;;;58.80;30.48;;;;;;;;;;5072187;28;20033;-70
2022/04/18 04:54:50;;;;;;;57.33;31.05;;;;;;;;;;5072124;28;20032;-70
2022/04/18 04:57:16;;;;;;;59.28;30.25;;;;;;;;;;5055116;28;20041;-70
2022/04/18 04:59:42;;;;;;;59.70;32.30;;;;;;;;;;5071900;28;20039;-70
2022/04/18 05:02:08;;;;;;;52.90;29.15;;;;;;;;;;5055366;28;20381;-70
2022/04/18 05:04:34;;;;;;;56.22;31.75;;;;;;;;;;5055178;28;20041;-70
2022/04/18 05:07:00;;;;;;;54.65;30.08;;;;;;;;;;5071662;28;20051;-70
2022/04/18 05:09:26;;;;;;;62.88;31.30;;;;;;;;;;5071805;28;20045;-70
2022/04/18 05:11:55;;;;;;;53.00;29.35;;;;;;;;;;5071676;28;20056;-70
2022/04/18 05:14:21;;;;;;;57.65;30.10;;;;;;;;;;5071933;28;20111;-70
2022/04/18 05:16:47;;;;;;;62.78;31.35;;;;;;;;;;5071773;28;20110;-70
2022/04/18 05:19:13;;;;;;;57.70;29.60;;;;;;;;;;5054972;28;20055;-70
2022/04/18 05:21:39;;;;;;;51.83;30.05;;;;;;;;;;5075547;28;20076;-70
2022/04/18 05:24:05;;;;;;;60.65;31.65;;;;;;;;;;5075717;28;20049;-70
2022/04/18 05:26:31;;;;;;;58.92;31.27;;;;;;;;;;5075519;28;20045;-70
2022/04/18 05:28:58;;;;;;;55.45;29.55;;;;;;;;;;5075593;28;20075;-70
2022/04/18 05:31:24;;;;;;;53.70;29.48;;;;;;;;;;5075480;28;20043;-70
2022/04/18 05:33:50;;;;;;;58.33;31.13;;;;;;;;;;5075566;28;20093;-70
2022/04/18 05:36:17;;;;;;;54.80;30.23;;;;;;;;;;5059051;28;20093;-70
2022/04/18 05:38:43;;;;;;;64.47;30.33;;;;;;;;;;5075423;28;20040;-70
2022/04/18 05:41:09;;;;;;;56.83;30.05;;;;;;;;;;5059020;28;20051;-70
2022/04/18 05:43:35;;;;;;;56.28;30.35;;;;;;;;;;5075303;28;20049;-70
2022/04/18 05:46:01;;;;;;;58.20;30.33;;;;;;;;;;5075364;28;20499;-70
2022/04/18 05:48:27;;;;;;;63.55;31.38;;;;;;;;;;5075146;28;20518;-70
2022/04/18 05:50:53;;;;;;;59.35;30.25;;;;;;;;;;5075482;28;20392;-70
2022/04/18 05:53:25;;;;;;;59.05;30.27;;;7.70;94.50;;;;;;5075448;28;20043;-70
2022/04/18 05:55:51;;;;;;;60.00;31.25;;;;;;;;;;5074963;28;20079;-70
2022/04/18 05:58:17;;;;;;;68.03;33.63;;;;;;;;;;5075030;28;20102;-71
2022/04/18 06:00:43;;;;;;;61.50;32.63;;;;;;;;;;5058477;28;20067;-70
2022/04/18 06:03:09;;;;;;;57.35;30.95;;;;;;;;;;5074969;28;20094;-71
2022/04/18 06:05:35;;;;;;;62.45;31.35;;;;;;;;;;5074870;28;20127;-71
2022/04/18 06:08:03;;;;;;;58.75;30.52;;;;;;;;;;5074784;28;20040;-70
2022/04/18 06:10:29;;;;;;;56.40;31.42;;;;;;;;;;5075019;28;20117;-71
2022/04/18 06:12:55;;;;;;;53.28;31.92;;;;;;;;;;5074758;28;20044;-71
2022/04/18 06:15:22;;;;;;;63.63;33.25;;;;;;;;;;5074568;28;20052;-71
2022/04/18 06:17:48;;;;;;;59.33;31.80;;;;;;;;;;5057857;28;20052;-70
2022/04/18 06:20:14;;;;;;;60.85;31.15;;;;;;;;;;5074573;28;20049;-71
2022/04/18 06:22:40;;;;;;;62.33;33.13;;;;;;;;;;5075759;28;20385;-71
2022/04/18 06:25:06;;;;;;;61.70;33.10;;;;;;;;;;5074587;28;20036;-71
2022/04/18 06:27:32;;;;;;;69.00;33.95;;;;;;;;;;5057699;28;20048;-71
2022/04/18 06:29:59;;;;;;;65.25;34.38;;;;;;;;;;5074581;28;20102;-71
2022/04/18 06:32:25;;;;;;;60.30;31.98;;;;;;;;;;5073498;28;20123;-71
2022/04/18 06:34:51;;;;;;;57.17;31.90;;;;;;;;;;5074580;28;20369;-70
2022/04/18 06:37:17;;;;;;;57.67;30.45;;;;;;;;;;5074172;28;20527;-70
2022/04/18 06:39:43;;;;;;;60.90;30.52;;;;;;;;;;5074243;28;20048;-70
2022/04/18 06:42:09;;;;;;;63.30;31.45;;;;;;;;;;5074223;28;20047;-70
2022/04/18 06:44:35;;;;;;;60.00;32.30;;;;;;;;;;5074191;28;20044;-70
2022/04/18 06:47:02;;;;;;;57.70;30.92;;;;;;;;;;5074017;28;20056;-70
2022/04/18 06:49:28;;;;;;;58.20;32.05;;;;;;;;;;5074156;28;20072;-70
2022/04/18 06:51:54;;;;;;;60.33;31.63;;;;;;;;;;5073862;28;20515;-70
2022/04/18 06:54:20;;;;;;;62.22;31.95;;;;;;;;;;5057272;28;20495;-71
2022/04/18 06:57:01;;;;;;;57.63;30.77;;;;;;;;;;5073718;28;20047;-71
2022/04/18 06:59:30;;;;;;;63.03;32.22;;;9.70;97.60;;;;;;5074106;28;20048;-71
2022/04/18 07:01:57;;;;;;;62.17;30.77;;;;;;;;;;5057107;28;20124;-71
2022/04/18 07:04:23;;;;;;;61.60;32.38;;;;;;;;;;5057071;28;20047;-71
2022/04/18 07:06:50;;;;;;;57.95;31.13;;;;;;;;;;5073606;28;20040;-71
2022/04/18 07:09:17;;;;;;;56.00;31.35;;;;;;;;;;5073653;28;20082;-71
2022/04/18 07:11:45;;;;;;;61.35;30.80;;;;;;;;;;5073600;28;20040;-71
2022/04/18 07:14:12;;;;;;;60.17;31.73;;;9.50;93.40;;;;;;5073776;28;20388;-71
2022/04/18 07:16:38;;;;;;;63.00;31.52;;;;;;;;;;5073369;28;20581;-71
2022/04/18 07:19:04;;;;;;;58.35;29.58;;;;;;;;;;5056722;28;20533;-71
2022/04/18 07:21:30;;;;;;;67.55;31.23;;;;;;;;;;5073348;28;20091;-71
2022/04/18 07:23:57;;;;;;;57.42;29.77;;;;;;;;;;5074564;28;20040;-70
2022/04/18 07:26:23;;;;;;;58.95;30.25;;;;;;;;;;5073408;28;20045;-70
2022/04/18 07:28:49;;;;;;;57.72;29.85;;;;;;;;;;5073400;28;20040;-70
2022/04/18 07:31:15;;;;;;;56.40;29.92;;;;;;;;;;5073108;28;20523;-70
2022/04/18 07:33:42;;;;;;;59.30;30.58;;;;;;;;;;5073389;28;20117;-71
2022/04/18 07:36:08;;;;;;;54.50;29.33;;;;;;;;;;5073020;28;20056;-71
2022/04/18 07:38:49;;;;;;;58.30;30.60;;;;;;;;;;5073075;28;20492;-71
2022/04/18 07:41:24;;;;;;;55.47;28.92;;;10.20;92.90;;;;;;5073010;28;20044;-71
2022/04/18 07:43:51;;;;;;;56.28;30.08;;;;;;;;;;5072121;28;20041;-71
2022/04/18 07:46:17;;;;;;;60.13;29.00;;;;;;;;;;5072607;28;20453;-71
2022/04/18 07:48:48;;;;;;;57.70;29.58;;;;;;;;;;5073071;28;20041;-70
2022/04/18 07:54:00;;;;;;;56.33;28.15;;;10.50;92.60;;;;;;5072802;28;20396;-71
2022/04/18 07:56:26;;;;;;;64.13;29.77;;;;;;;;;;5073932;28;20397;-71
2022/04/18 07:58:53;;;;;;;52.05;27.90;;;;;;;;;;5072725;28;20080;-69
2022/04/18 08:01:20;;;;;;;51.60;29.15;;;10.60;92.40;;;;;;5072691;28;20040;-70
2022/04/18 08:03:46;;;;;;;66.50;30.77;;;;;;;;;;5072546;28;20074;-71
2022/04/18 08:06:12;;;;;;;56.08;29.77;;;;;;;;;;5072467;28;20041;-70
2022/04/18 08:08:39;;;;;;;53.05;26.98;;;;;;;;;;5072558;28;20089;-70
2022/04/18 08:11:05;;;;;;;49.42;27.45;;;;;;;;;;5072552;28;20062;-70
2022/04/18 08:13:31;;;;;;;48.67;26.77;;;;;;;;;;5055714;28;20051;-70
2022/04/18 08:15:58;;;;;;;51.15;28.45;;;;;;;;;;5072312;28;20086;-70
2022/04/18 08:18:25;;;;;;;55.05;27.65;;;;;;;;;;5072177;28;20044;-70
2022/04/18 08:20:52;;;;;;;60.70;27.70;;;;;;;;;;5072209;28;20476;-70
2022/04/18 08:23:18;;;;;;;55.20;26.85;;;;;;;;;;5072236;28;20052;-70
2022/04/18 08:25:44;;;;;;;48.78;26.55;;;;;;;;;;5072365;28;20050;-70
2022/04/18 08:28:11;;;;;;;55.90;26.95;;;;;;;;;;5072440;28;20051;-70
2022/04/18 08:30:37;;;;;;;51.97;26.77;;;;;;;;;;5073442;28;20044;-70
2022/04/18 08:33:03;;;;;;;53.13;27.10;;;;;;;;;;5072161;28;20043;-70
2022/04/18 08:35:32;;;;;;;47.28;26.67;;;;;;;;;;5072414;28;20036;-70
2022/04/18 08:38:01;;;;;;;50.97;26.38;;;11.80;91.60;;;;;;5073375;28;20063;-70
2022/04/18 08:40:27;;;;;;;46.58;25.83;;;;;;;;;;5072064;28;20044;-71
2022/04/18 08:42:57;;;;;;;51.67;28.40;;;12.00;90.80;;;;;;5073388;28;20101;-71
2022/04/18 08:45:24;;;;;;;47.28;24.42;;;12.30;91.10;;;;;;5055118;28;20045;-71
2022/04/18 08:53:25;;;;;;;42.60;24.65;;;;;;;;;;5072078;28;20044;-70
2022/04/18 08:55:51;;;;;;;47.40;24.48;;;;;;;;;;5071491;28;20123;-70
2022/04/18 08:58:17;;;;;;;49.55;25.20;;;;;;;;;;5073106;28;20041;-70
2022/04/18 09:00:43;;;;;;;48.80;24.67;;;;;;;;;;5072126;28;20386;-71
2022/04/18 09:03:09;;;;;;;43.45;23.95;;;;;;;;;;5071935;28;20091;-71
2022/04/18 09:05:38;;;;;;;43.58;24.40;;;12.90;91.10;;;;;;5071657;28;20041;-71
2022/04/18 09:08:10;;;;;;;49.33;23.35;;;13.10;90.90;;;;;;5072202;28;20048;-71
2022/04/18 09:10:36;;;;;;;50.43;23.83;;;;;;;;;;5072077;28;20098;-71
2022/04/18 09:13:13;;;;;;;36.45;22.88;;;13.40;90.80;;;;;;5071962;28;20743;-71
2022/04/18 09:15:41;;;;;;;46.60;24.35;;;13.20;90.60;;;;;;5072941;28;20056;-71
2022/04/18 09:18:07;;;;;;;42.70;22.80;;;;;;;;;;5071959;28;20127;-71
2022/04/18 09:20:54;;;;;;;40.88;23.08;;;13.60;89.60;;;;;;5071850;28;20040;-71
2022/04/18 09:23:22;;;;;;;43.90;22.60;;;;;;;;;;5072916;28;20033;-71
2022/04/18 09:25:55;;;;;;;43.95;21.80;;;13.80;90.20;;;;;;5072876;28;20106;-71
2022/04/18 09:28:25;;;;;;;36.13;21.77;;;;;;;;;;5071544;28;20074;-71
2022/04/18 09:31:01;;;;;;;42.92;21.60;;;;;;;;;;5071800;28;20119;-71
2022/04/18 09:33:30;;;;;;;39.55;21.13;;;13.60;93.30;;;;;;5071656;28;20071;-71
2022/04/18 09:36:12;;;;;;;40.45;21.55;;;14.20;90.10;;;;;;5071467;28;20102;-71
2022/04/18 09:38:40;;;;;;;37.63;19.40;;;14.30;89.00;;;;;;5071763;28;20377;-71
2022/04/18 09:41:06;;;;;;;37.25;20.45;;;;;;;;;;5073105;28;20094;-71
2022/04/18 09:43:46;;;;;;;41.22;21.15;;;14.70;88.90;;;;;;5071411;28;20112;-71
2022/04/18 09:46:13;;;;;;;36.30;19.60;;;;;;;;;;5054736;28;20047;-71
2022/04/18 09:48:43;;;;;;;38.67;19.27;;;14.80;87.00;;;;;;5071565;28;20040;-71
2022/04/18 09:51:14;;;;;;;28.90;18.88;;;15.50;92.30;;;;;;5071787;28;20055;-71
2022/04/18 09:53:46;;;;;;;33.85;19.30;;;15.50;92.10;;;;;;5072695;28;20044;-71
2022/04/18 09:56:16;;;;;;;34.08;19.70;;;15.00;84.20;;;;;;5071508;28;20495;-71
2022/04/18 09:58:43;;;;;;;30.23;18.42;;;;;;;;;;5054609;28;20076;-71
2022/04/18 10:01:10;;;;;;;31.08;18.83;;;15.40;85.60;;;;;;5071511;28;20037;-71
2022/04/18 10:03:36;;;;;;;31.25;18.52;;;;;;;;;;5071503;28;20370;-71
2022/04/18 10:06:03;;;;;;;33.60;17.33;;;15.60;84.40;;;;;;5071166;28;20075;-71
2022/04/18 10:08:30;;;;;;;42.88;18.38;;;;;;;;;;5074729;28;20124;-71
2022/04/18 10:11:00;;;;;;;30.73;17.65;;;15.80;84.60;;;;;;5075070;28;20063;-71
2022/04/18 10:13:27;;;;;;;46.28;17.67;;;16.10;83.40;;;;;;5076356;28;20190;-71
2022/04/18 10:15:54;;;;;;;34.08;17.65;;;16.00;82.90;;;;;;5057927;28;20094;-71
2022/04/18 10:18:21;;;;;;;27.40;15.90;;;;;;;;;;5076035;28;20072;-71
2022/04/18 10:21:02;;;;;;;26.30;15.65;;;16.70;81.60;;;;;;5075149;28;20063;-71
2022/04/18 10:24:07;;;;;;;27.58;16.05;;;16.90;90.10;;;;;;5074725;28;20036;-71
2022/04/18 10:27:03;;;;;;;32.35;16.45;;;16.40;80.10;;;;;;5074299;28;20049;-71
2022/04/18 10:29:32;;;;;;;27.25;14.73;;;16.60;81.80;;;;;;5074587;28;20040;-71
2022/04/18 10:32:03;;;;;;;26.85;14.10;;;16.40;84.40;;;;;;5074427;28;20369;-71
2022/04/18 10:34:31;;;;;;;25.70;14.35;;;17.20;88.80;;;;;;5074406;28;20048;-71
2022/04/18 10:37:00;;;;;;;27.10;15.93;;;17.20;88.30;;;;;;5058241;28;20862;-72
2022/04/18 10:39:34;;;;;;;21.52;12.85;;;17.00;77.30;;;;;;5074412;28;20053;-71
2022/04/18 10:42:19;;;;;;;21.25;13.30;;;17.20;79.60;;;;;;5074485;28;20123;-71
2022/04/18 10:45:01;;;;;;;25.02;13.50;;;17.20;78.90;;;;;;5074156;28;20045;-71
2022/04/18 10:47:48;;;;;;;24.63;13.10;;;17.90;78.90;;;;;;5074211;28;20201;-71
2022/04/18 10:50:20;;;;;;;25.17;12.50;;;17.60;86.30;;;;;;5073982;28;20051;-71
2022/04/18 10:53:12;;;;;;;22.45;13.18;;;18.20;86.20;;;;;;5074211;28;20051;-71
2022/04/18 10:55:57;;;;;;;21.98;12.23;;;17.60;77.40;;;;;;5073947;28;20508;-71
2022/04/18 10:58:29;;;;;;;19.65;11.27;;;17.90;77.00;;;;;;5072720;28;20044;-71
2022/04/18 11:00:57;;;;;;;19.23;12.15;;;17.90;76.60;;;;;;5075460;28;20433;-72
2022/04/18 11:03:43;;;;;;;26.42;10.60;;;18.50;84.30;;;;;;5074189;28;20044;-72
2022/04/18 11:06:36;;;;;;;24.67;11.35;;;18.20;76.00;;;;;;5073698;28;20048;-72
2022/04/18 11:09:07;;;;;;;21.17;12.93;;;18.40;73.70;;;;;;5073709;28;20113;-72
2022/04/18 11:11:42;;;;;;;14.80;8.07;;;18.30;83.10;;;;;;5074007;28;20029;-72
2022/04/18 11:14:16;;;;;;;19.73;10.05;;;19.20;82.20;;;;;;5073637;28;20045;-72
2022/04/18 11:16:43;;;;;;;18.58;8.80;;;;;;;;;;5073541;28;20052;-72
2022/04/18 11:19:16;;;;;;;16.15;8.10;;;18.80;73.00;;;;;;5073321;28;20556;-72
2022/04/18 11:21:55;;;;;;;15.57;10.02;;;19.00;81.00;;;;;;5073477;28;20560;-72
2022/04/18 11:24:52;;;;;;;18.25;10.85;;;19.00;81.00;;;;;;5073428;28;20051;-71
2022/04/18 11:27:22;;;;;;;16.27;9.23;;;19.40;77.50;;;;;;5073335;28;20044;-72
2022/04/18 11:29:55;;;;;;;20.73;9.10;;;19.30;69.60;;;;;;5073649;28;20119;-72
2022/04/18 11:32:24;;;;;;;19.92;10.23;;;19.10;79.90;;;;;;5073322;28;20123;-72
2022/04/18 11:34:53;;;;;;;20.95;11.02;;;19.20;71.70;;;;;;5073499;28;20048;-72
2022/04/18 11:37:26;;;;;;;20.70;10.82;;;19.30;80.10;;;;;;5073277;28;20040;-72
2022/04/18 11:39:57;;;;;;;16.98;10.10;;;19.20;72.00;;;;;;5074498;28;20451;-72
2022/04/18 11:42:25;;;;;;;16.45;8.90;;;18.70;79.00;;;;;;5073158;28;20043;-72
2022/04/18 11:44:55;;;;;;;14.52;9.90;;;19.10;78.90;;;;;;5056454;28;20097;-72
2022/04/18 11:47:28;;;;;;;18.15;10.00;;;19.90;79.70;;;;;;5072868;28;20489;-72
2022/04/18 11:50:01;;;;;;;18.30;9.90;;;19.70;78.40;;;;;;5072977;28;20040;-72
2022/04/18 11:52:32;;;;;;;13.18;8.52;;;20.00;78.00;;;;;;5072967;28;20093;-72
2022/04/18 11:55:17;;;;;;;16.70;9.55;;;19.90;67.60;;;;;;5073067;28;20037;-72
2022/04/18 11:57:48;;;;;;;18.20;9.93;;;19.90;77.50;;;;;;5056161;28;20036;-72
2022/04/18 12:06:44;;;;;;;19.38;8.85;;;20.30;69.50;;;;;;5072727;28;20068;-72
2022/04/18 12:08:32;;;;;;;17.27;9.13;;;;;;;;;;5072700;28;20040;-71
2022/04/18 12:10:58;;;;;;;16.92;9.63;;;;;;;;;;5072463;28;20046;-71
2022/04/18 12:13:24;;;;;;;16.15;9.57;;;20.70;76.40;;;;;;5072479;28;20055;-70
2022/04/18 12:15:50;;;;;;;21.20;9.73;;;;;;;;;;5055652;28;20053;-70
2022/04/18 12:18:17;;;;;;;15.63;9.68;;;20.00;74.80;;;;;;5072835;28;20044;-70
2022/04/18 12:20:49;;;;;;;18.48;9.75;;;20.90;75.00;;;;;;5072351;28;20042;-70
2022/04/18 12:23:20;;;;;;;17.37;9.53;;;20.00;74.70;;;;;;5056010;28;20380;-70
2022/04/18 12:25:48;;;;;;;15.32;8.60;;;20.90;66.70;;;;;;5073734;28;20048;-71
2022/04/18 12:28:16;;;;;;;13.98;9.27;;;21.10;66.50;;;;;;5072601;28;20392;-70
2022/04/18 12:30:42;;;;;;;15.95;9.25;;;21.70;74.20;;;;;;5072893;28;20499;-70
2022/04/18 12:33:11;;;;;;;16.48;9.25;;;21.20;74.00;;;;;;5073608;28;20044;-70
2022/04/18 12:35:38;;;;;;;13.50;9.40;;;21.50;74.10;;;;;;5055607;28;20481;-70
2022/04/18 12:38:06;;;;;;;17.27;9.40;;;21.90;73.50;;;;;;5073599;28;20492;-71
2022/04/18 12:40:45;;;;;;;15.77;9.48;;;21.70;62.60;;;;;;5055447;28;20043;-71
2022/04/18 12:43:16;;;;;;;15.32;9.35;;;21.90;73.00;;;;;;5073376;28;20541;-71
2022/04/18 12:45:56;;;;;;;21.05;10.98;;;22.00;72.60;;;;;;5071915;28;20508;-71
2022/04/18 12:48:33;;;;;;;20.70;10.02;;;22.40;65.10;;;;;;5073259;28;20518;-70
2022/04/18 12:51:00;;;;;;;14.90;8.82;;;21.90;65.30;;;;;;5072282;28;20045;-72
2022/04/18 12:53:44;;;;;;;13.55;8.50;;;22.40;71.90;;;;;;5073271;28;20579;-71
2022/04/18 12:56:10;;;;;;;12.52;8.45;;;21.40;70.60;;;;;;5055409;28;20048;-71
2022/04/18 12:58:40;;;;;;;15.05;8.80;;;22.20;70.80;;;;;;5071917;28;20422;-71
2022/04/18 13:01:07;;;;;;;16.23;8.55;;;21.60;69.60;;;;;;5072190;28;20442;-71
2022/04/18 13:03:43;;;;;;;15.13;9.02;;;22.80;60.00;;;;;;5071878;28;20068;-71
2022/04/18 13:06:09;;;;;;;12.98;8.68;;;22.90;69.40;;;;;;5071879;28;20072;-71
2022/04/18 13:08:39;;;;;;;16.05;9.32;;;22.90;69.70;;;;;;5073117;28;20040;-71
2022/04/18 13:11:06;;;;;;;17.20;8.50;;;21.90;69.10;;;;;;5072310;28;20040;-71
2022/04/18 13:13:32;;;;;;;19.30;9.32;;;;;;;;;;5071936;28;20043;-71
2022/04/18 13:16:18;;;;;;;14.77;9.13;;;22.80;68.90;;;;;;5071711;28;20056;-71
2022/04/18 13:18:44;;;;;;;16.75;10.40;;;23.40;69.80;;;;;;5071565;28;20056;-71
2022/04/18 13:21:10;;;;;;;22.83;10.50;;;;;;;;;;5071825;28;20044;-71
2022/04/18 13:23:35;;;;;;;16.13;10.18;;;23.10;69.30;;;;;;5072108;28;20048;-71
2022/04/18 13:26:01;;;;;;;16.25;9.00;;;23.70;69.20;;;;;;5072241;28;20377;-72
2022/04/18 13:28:27;;;;;;;14.65;8.23;;;;;;;;;;5055597;28;20139;-72
2022/04/18 13:30:53;;;;;;;16.85;9.48;;;22.90;68.50;;;;;;5071602;28;20044;-72
2022/04/18 13:33:18;;;;;;;18.77;10.35;;;23.60;68.20;;;;;;5055109;28;20033;-72
2022/04/18 13:38:29;;;;;;;13.63;9.13;;;23.90;68.70;;;;;;5071877;28;20051;-72
2022/04/18 13:40:55;;;;;;;15.65;9.32;;;;;;;;;;5054844;28;20405;-72
2022/04/18 13:43:21;;;;;;;19.98;10.55;;;23.80;68.40;;;;;;5075119;28;20036;-72
2022/04/18 13:45:47;;;;;;;17.83;8.95;;;;;;;;;;5075184;28;20041;-72
2022/04/18 13:48:15;;;;;;;15.77;9.07;;;24.30;67.80;;;;;;5075159;28;20542;-72
2022/04/18 13:50:40;;;;;;;14.65;8.55;;;24.40;66.50;;;;;;5075515;28;20041;-73
2022/04/18 13:53:06;;;;;;;17.55;9.07;;;23.70;66.50;;;;;;5075168;28;20485;-73
2022/04/18 13:55:33;;;;;;;16.90;8.45;;;23.90;57.30;;;;;;5075205;28;20048;-73
2022/04/18 13:57:59;;;;;;;16.67;8.98;;;24.10;66.90;;;;;;5076273;28;20049;-72
2022/04/18 14:00:26;;;;;;;14.45;9.70;;;23.70;66.70;;;;;;5076216;28;20043;-72
2022/04/18 14:02:52;;;;;;;15.73;9.85;;;24.30;67.20;;;;;;5076080;28;20039;-71
2022/04/18 14:05:18;;;;;;;12.73;9.10;;;24.10;67.00;;;;;;5076165;28;20052;-72
2022/04/18 14:07:44;;;;;;;15.60;9.98;;;24.40;65.90;;;;;;5075005;28;20117;-71